Terminal Aerodrome Forecast
Issued by NWS Dallas/Fort Worth, TX

Home | Current Version | Previous Version | Text Only | Print | Product List | Glossary On
Versions: 1 2 3 4 5 6 7 8 9 10 11 12 13 14 15 16 17 18 19 20 21 22 23 24 25 26 27 28 29 30
000
FTUS44 KFWD 262100 AAA
TAFACT
TAF AMD
KACT 262100Z 2621/2718 17014G24KT P6SM SCT025 SCT250
     FM270000 17016KT P6SM SCT035 SCT250
     FM270400 18016KT P6SM BKN011
     FM270800 20016KT P6SM BKN007
     FM271400 21008KT P6SM BKN009
     FM271700 30007KT P6SM BKN015=

USA.gov is the U.S. government's official web portal to all federal, state and local government web resources and services.